Time;durP1;ratioP1;P1;durP2;ratioP2;P2;SDS_P1;SDS_P2;PMS_P1;PMS_P2;Temp;Humidity;BMP_temperature;BMP_pressure;BME280_temperature;BME280_humidity;BME280_pressure;Samples;Min_cycle;Max_cycle;Signal;HPM_P1;HPM_P2
2022/12/31 00:00:35;;;;;;;1.27;0.80;;;12.90;92.50;;;;;;5116575;28;20072;-74
2022/12/31 00:03:01;;;;;;;0.95;0.70;;;12.80;92.50;;;;;;5116701;28;20588;-74
2022/12/31 00:05:30;;;;;;;0.60;0.50;;;12.90;92.50;;;;;;5135309;28;20055;-74
2022/12/31 00:07:56;;;;;;;0.98;0.80;;;12.90;92.50;;;;;;5117298;28;20031;-74
2022/12/31 00:10:22;;;;;;;0.63;0.60;;;12.90;92.50;;;;;;5135161;28;20084;-73
2022/12/31 00:12:48;;;;;;;0.57;0.57;;;12.90;92.50;;;;;;5116565;28;20504;-74
2022/12/31 00:15:13;;;;;;;0.52;0.47;;;12.90;92.50;;;;;;5116368;28;20085;-74
2022/12/31 00:17:39;;;;;;;0.50;0.43;;;12.90;92.60;;;;;;5134488;28;20050;-74
2022/12/31 00:20:05;;;;;;;1.02;0.60;;;12.90;92.60;;;;;;5099239;28;20031;-74
2022/12/31 00:22:32;;;;;;;0.98;0.50;;;12.90;92.60;;;;;;5134983;28;20042;-75
2022/12/31 00:24:58;;;;;;;0.63;0.47;;;12.90;92.60;;;;;;5099232;28;20491;-74
2022/12/31 00:27:23;;;;;;;0.22;0.22;;;12.80;92.60;;;;;;5116463;28;20039;-75
2022/12/31 00:29:49;;;;;;;0.30;0.30;;;12.90;92.70;;;;;;5116062;28;20036;-75
2022/12/31 00:32:14;;;;;;;0.70;0.50;;;12.80;92.70;;;;;;5134618;28;20027;-74
2022/12/31 00:34:40;;;;;;;0.20;0.20;;;12.80;92.70;;;;;;5134707;28;20038;-74
2022/12/31 00:37:05;;;;;;;0.25;0.25;;;12.90;92.80;;;;;;5135076;28;20410;-75
2022/12/31 00:39:31;;;;;;;0.25;0.25;;;12.80;92.80;;;;;;5082021;28;20039;-75
2022/12/31 00:41:57;;;;;;;0.30;0.30;;;12.80;92.80;;;;;;5134421;28;20035;-74
2022/12/31 00:44:22;;;;;;;0.20;0.20;;;12.80;92.80;;;;;;5134543;28;20371;-75
2022/12/31 00:46:48;;;;;;;0.30;0.30;;;12.80;92.90;;;;;;5115810;28;20050;-75
2022/12/31 00:49:14;;;;;;;0.43;0.30;;;12.70;92.90;;;;;;5115998;28;20039;-75
2022/12/31 00:51:39;;;;;;;0.20;0.20;;;12.70;92.90;;;;;;5115900;28;20092;-75
2022/12/31 00:54:05;;;;;;;0.63;0.40;;;12.70;93.00;;;;;;5115853;28;20047;-74
2022/12/31 00:56:31;;;;;;;1.42;0.38;;;12.60;93.00;;;;;;5098678;28;20386;-74
2022/12/31 00:58:58;;;;;;;0.95;0.50;;;12.60;93.00;;;;;;5115910;28;20138;-74
2022/12/31 01:01:27;;;;;;;0.73;0.43;;;12.50;93.00;;;;;;5134335;28;20035;-75
2022/12/31 01:04:02;;;;;;;0.50;0.40;;;12.50;93.00;;;;;;5116025;28;20088;-74
2022/12/31 01:06:28;;;;;;;0.75;0.52;;;12.50;93.00;;;;;;5134003;28;20054;-74
2022/12/31 01:08:54;;;;;;;0.50;0.50;;;12.50;93.10;;;;;;5115639;28;20039;-75
2022/12/31 01:11:21;;;;;;;0.85;0.60;;;12.50;93.10;;;;;;5133726;28;20039;-75
2022/12/31 01:13:51;;;;;;;0.52;0.52;;;12.50;93.10;;;;;;5115189;28;20053;-75
2022/12/31 01:16:20;;;;;;;0.47;0.47;;;12.40;93.10;;;;;;5115031;28;20429;-74
2022/12/31 01:18:46;;;;;;;0.60;0.60;;;12.40;93.20;;;;;;5134091;28;20043;-75
2022/12/31 01:21:13;;;;;;;0.75;0.50;;;12.30;93.20;;;;;;5133450;28;20049;-75
2022/12/31 01:23:39;;;;;;;0.60;0.60;;;12.30;93.20;;;;;;5133557;28;20037;-75
2022/12/31 01:26:07;;;;;;;0.70;0.60;;;12.30;93.20;;;;;;5133486;28;20121;-75
2022/12/31 01:28:34;;;;;;;0.60;0.60;;;12.20;93.20;;;;;;5098283;28;20043;-75
2022/12/31 01:31:03;;;;;;;0.50;0.50;;;12.20;93.30;;;;;;5098223;28;20067;-75
2022/12/31 01:33:29;;;;;;;0.43;0.43;;;12.20;93.30;;;;;;5115323;28;20027;-75
2022/12/31 01:35:55;;;;;;;0.63;0.60;;;12.10;93.30;;;;;;5133882;28;20039;-75
2022/12/31 01:38:20;;;;;;;0.35;0.30;;;12.20;93.40;;;;;;5114960;28;20126;-75
2022/12/31 01:40:46;;;;;;;0.47;0.40;;;12.10;93.40;;;;;;5115611;28;20039;-75
2022/12/31 01:43:15;;;;;;;0.30;0.30;;;12.10;93.40;;;;;;5098405;28;20064;-75
2022/12/31 01:45:44;;;;;;;0.30;0.30;;;12.10;93.40;;;;;;5098022;28;20104;-75
2022/12/31 01:48:13;;;;;;;0.22;0.22;;;12.10;93.50;;;;;;5133895;28;20043;-76
2022/12/31 01:50:40;;;;;;;1.38;0.43;;;12.00;93.40;;;;;;5133806;28;20039;-75
2022/12/31 01:53:08;;;;;;;0.28;0.28;;;12.00;93.50;;;;;;5133198;28;20065;-75
2022/12/31 01:55:43;;;;;;;0.32;0.25;;;12.10;93.50;;;;;;5115032;28;20051;-76
2022/12/31 01:58:14;;;;;;;0.20;0.20;;;12.00;93.50;;;;;;5133447;28;20043;-75
2022/12/31 02:00:46;;;;;;;0.25;0.25;;;12.00;93.50;;;;;;5114782;28;20089;-75
2022/12/31 02:03:13;;;;;;;0.25;0.22;;;12.00;93.50;;;;;;5116016;28;20043;-75
2022/12/31 02:05:48;;;;;;;0.40;0.30;;;12.00;93.50;;;;;;5114495;28;20066;-75
2022/12/31 02:08:13;;;;;;;0.52;0.30;;;12.00;93.50;;;;;;5135593;27;20504;-75
2022/12/31 02:10:39;;;;;;;0.30;0.30;;;12.00;93.50;;;;;;5136613;28;20047;-75
2022/12/31 02:13:05;;;;;;;0.57;0.38;;;12.00;93.50;;;;;;5137082;28;20118;-76
2022/12/31 02:15:51;;;;;;;0.40;0.28;;;12.00;93.50;;;;;;5101348;28;20134;-75
2022/12/31 02:18:33;;;;;;;0.70;0.40;;;12.00;93.50;;;;;;5136614;28;20065;-75
2022/12/31 02:21:27;;;;;;;0.38;0.38;;;12.00;93.50;;;;;;5118206;28;20042;-75
2022/12/31 02:24:16;;;;;;;0.30;0.30;;;11.90;93.50;;;;;;5136298;28;20036;-75
2022/12/31 02:26:58;;;;;;;0.28;0.28;;;11.90;93.50;;;;;;5136669;28;20050;-76
2022/12/31 02:29:51;;;;;;;0.32;0.20;;;11.80;93.50;;;;;;5136427;28;20035;-75
2022/12/31 02:32:24;;;;;;;0.47;0.20;;;11.90;93.50;;;;;;5118083;28;20043;-75
2022/12/31 02:34:57;;;;;;;0.20;0.20;;;11.90;93.50;;;;;;5136647;28;20092;-75
2022/12/31 02:37:25;;;;;;;0.20;0.20;;;11.90;93.50;;;;;;5119045;28;20074;-75
2022/12/31 02:39:51;;;;;;;0.10;0.10;;;11.90;93.50;;;;;;5117819;28;20134;-75
2022/12/31 02:42:17;;;;;;;0.20;0.20;;;11.90;93.50;;;;;;5101270;28;20108;-75
2022/12/31 02:44:43;;;;;;;0.10;0.10;;;11.90;93.60;;;;;;5117601;28;20051;-75
2022/12/31 02:47:33;;;;;;;0.20;0.20;;;11.90;93.50;;;;;;5100520;28;20066;-75
2022/12/31 02:50:22;;;;;;;0.10;0.10;;;11.90;93.60;;;;;;5118197;28;20043;-75
2022/12/31 02:53:15;;;;;;;0.20;0.20;;;11.90;93.60;;;;;;5136463;28;20287;-75
2022/12/31 02:55:55;;;;;;;1.27;0.20;;;11.80;93.60;;;;;;5104649;28;20478;-75
2022/12/31 03:06:45;;;;;;;0.35;0.15;;;11.80;93.60;;;;;;5119897;28;20169;-75
2022/12/31 03:09:12;;;;;;;0.20;0.20;;;11.80;93.60;;;;;;5117674;28;20180;-75
2022/12/31 03:14:17;;;;;;;0.32;0.30;;;11.80;93.60;;;;;;5135937;28;20486;-75
2022/12/31 03:16:42;;;;;;;0.20;0.20;;;11.80;93.60;;;;;;5117220;28;20035;-75
2022/12/31 03:27:18;;;;;;;0.60;0.20;;;11.60;93.60;;;;;;5120106;28;20039;-75
2022/12/31 03:29:43;;;;;;;0.73;0.20;;;11.70;93.60;;;;;;5117533;28;20058;-75
2022/12/31 03:32:09;;;;;;;0.73;0.20;;;11.70;93.60;;;;;;5117627;28;20398;-75
2022/12/31 03:34:34;;;;;;;0.28;0.28;;;11.70;93.60;;;;;;5117030;28;20043;-76
2022/12/31 03:37:00;;;;;;;0.20;0.20;;;11.70;93.60;;;;;;5135476;28;20039;-75
2022/12/31 03:39:25;;;;;;;0.75;0.32;;;11.70;93.60;;;;;;5116580;28;20031;-76
2022/12/31 03:41:51;;;;;;;0.25;0.25;;;11.70;93.70;;;;;;5135267;28;20031;-75
2022/12/31 03:44:17;;;;;;;0.20;0.20;;;11.70;93.60;;;;;;5136045;28;20140;-75
2022/12/31 03:46:42;;;;;;;0.52;0.30;;;11.70;93.70;;;;;;5116891;28;20519;-75
2022/12/31 03:49:08;;;;;;;0.30;0.30;;;11.70;93.70;;;;;;5117500;28;20035;-75
2022/12/31 03:51:34;;;;;;;0.30;0.30;;;11.70;93.70;;;;;;5116932;28;20039;-75
2022/12/31 03:53:59;;;;;;;0.60;0.40;;;11.70;93.70;;;;;;5117333;28;20409;-75
2022/12/31 03:56:25;;;;;;;0.40;0.25;;;11.70;93.70;;;;;;5116778;28;20076;-75
2022/12/31 03:58:50;;;;;;;0.50;0.47;;;11.60;93.60;;;;;;5116723;28;20031;-76
2022/12/31 04:01:16;;;;;;;0.40;0.40;;;11.60;93.70;;;;;;5116673;28;20047;-75
2022/12/31 04:03:41;;;;;;;0.30;0.30;;;11.60;93.70;;;;;;5116487;28;20532;-75
2022/12/31 04:06:07;;;;;;;0.55;0.50;;;11.60;93.70;;;;;;5116812;28;20389;-75
2022/12/31 04:08:33;;;;;;;0.93;0.40;;;11.70;93.70;;;;;;5135117;28;20039;-75
2022/12/31 04:10:58;;;;;;;0.75;0.60;;;11.60;93.70;;;;;;5099495;28;20047;-74
2022/12/31 04:13:24;;;;;;;0.60;0.60;;;11.70;93.70;;;;;;5116756;28;20527;-74
2022/12/31 04:15:50;;;;;;;0.47;0.45;;;11.70;93.70;;;;;;5135405;28;20046;-75
2022/12/31 04:18:16;;;;;;;0.60;0.50;;;11.70;93.70;;;;;;5134623;28;20059;-74
2022/12/31 04:20:42;;;;;;;1.23;0.70;;;11.70;93.70;;;;;;5099486;28;20116;-75
2022/12/31 04:23:07;;;;;;;0.63;0.57;;;11.70;93.70;;;;;;5116786;28;20035;-75
2022/12/31 04:25:33;;;;;;;0.75;0.70;;;11.70;93.70;;;;;;5135162;28;20047;-75
2022/12/31 04:27:58;;;;;;;0.60;0.60;;;11.70;93.70;;;;;;5116398;28;20034;-76
2022/12/31 04:30:24;;;;;;;0.50;0.50;;;11.80;93.70;;;;;;5132030;27;20039;-75
2022/12/31 04:32:50;;;;;;;0.35;0.35;;;11.70;93.70;;;;;;5134568;28;20066;-75
2022/12/31 04:35:16;;;;;;;1.10;0.50;;;11.70;93.70;;;;;;5099066;28;20039;-75
2022/12/31 04:37:42;;;;;;;0.30;0.30;;;11.70;93.70;;;;;;5134381;28;20494;-75
2022/12/31 04:40:08;;;;;;;0.50;0.50;;;11.70;93.70;;;;;;5134939;28;20063;-75
2022/12/31 04:42:34;;;;;;;0.40;0.40;;;11.80;93.70;;;;;;5116183;28;20049;-75
2022/12/31 04:45:00;;;;;;;0.40;0.40;;;11.70;93.70;;;;;;5115948;28;20031;-75
2022/12/31 04:47:25;;;;;;;0.30;0.30;;;11.70;93.70;;;;;;5134504;28;20112;-75
2022/12/31 04:49:51;;;;;;;0.28;0.28;;;11.70;93.80;;;;;;5134030;28;20481;-75
2022/12/31 04:52:17;;;;;;;0.30;0.30;;;11.70;93.80;;;;;;5115720;28;20482;-75
2022/12/31 04:54:42;;;;;;;0.32;0.32;;;11.70;93.80;;;;;;5098447;28;20047;-75
2022/12/31 04:57:08;;;;;;;0.30;0.30;;;11.70;93.80;;;;;;5133965;28;20439;-75
2022/12/31 04:59:34;;;;;;;0.30;0.30;;;11.70;93.80;;;;;;5115548;28;20041;-75
2022/12/31 05:01:59;;;;;;;0.30;0.30;;;11.70;93.80;;;;;;5133882;28;20042;-75
2022/12/31 05:04:25;;;;;;;0.70;0.30;;;11.80;93.80;;;;;;5115513;28;20035;-75
2022/12/31 05:06:51;;;;;;;0.22;0.22;;;11.70;93.80;;;;;;5134404;28;20063;-75
2022/12/31 05:09:16;;;;;;;0.40;0.40;;;11.80;93.80;;;;;;5115806;28;20398;-74
2022/12/31 05:11:42;;;;;;;0.30;0.30;;;11.70;93.70;;;;;;5133986;28;20062;-75
2022/12/31 05:14:07;;;;;;;0.20;0.20;;;11.70;93.70;;;;;;5116047;28;20091;-75
2022/12/31 05:16:33;;;;;;;0.40;0.40;;;11.80;93.80;;;;;;5134178;28;20432;-75
2022/12/31 05:18:59;;;;;;;0.40;0.38;;;11.80;93.80;;;;;;5115373;28;20455;-75
2022/12/31 05:21:24;;;;;;;0.28;0.28;;;11.70;93.80;;;;;;5134327;28;20428;-75
2022/12/31 05:23:50;;;;;;;0.20;0.20;;;11.80;93.80;;;;;;5116054;28;20039;-75
2022/12/31 05:26:16;;;;;;;0.30;0.20;;;11.90;93.80;;;;;;5115707;28;20088;-74
2022/12/31 05:28:41;;;;;;;0.30;0.30;;;11.80;93.70;;;;;;5134450;28;20050;-75
2022/12/31 05:31:07;;;;;;;0.35;0.20;;;11.80;93.70;;;;;;5098481;28;20088;-74
2022/12/31 05:33:33;;;;;;;0.20;0.20;;;11.90;93.70;;;;;;5133659;28;20039;-74
2022/12/31 05:35:59;;;;;;;0.10;0.10;;;11.90;93.70;;;;;;5116112;28;20413;-74
2022/12/31 05:38:25;;;;;;;0.20;0.20;;;12.00;93.70;;;;;;5115337;28;20486;-74
2022/12/31 05:41:00;;;;;;;0.10;0.10;;;12.00;93.70;;;;;;5098362;27;20816;-74
2022/12/31 05:43:25;;;;;;;0.20;0.20;;;12.00;93.70;;;;;;5114746;28;20036;-74
2022/12/31 05:45:51;;;;;;;0.10;0.10;;;12.00;93.70;;;;;;5115251;28;20066;-74
2022/12/31 05:48:17;;;;;;;0.10;0.10;;;12.00;93.60;;;;;;5115291;28;20058;-74
2022/12/31 05:50:42;;;;;;;0.10;0.10;;;12.00;93.60;;;;;;5115126;28;20043;-74
2022/12/31 05:53:08;;;;;;;0.20;0.20;;;12.00;93.60;;;;;;5114962;28;20041;-74
2022/12/31 05:55:33;;;;;;;0.10;0.10;;;12.10;93.70;;;;;;5097967;28;20378;-74
2022/12/31 05:57:59;;;;;;;0.13;0.13;;;12.10;93.70;;;;;;5097987;28;20482;-74
2022/12/31 06:00:25;;;;;;;0.10;0.10;;;12.10;93.70;;;;;;5133262;28;20053;-74
2022/12/31 06:02:50;;;;;;;0.10;0.10;;;12.10;93.70;;;;;;5114798;28;20065;-74
2022/12/31 06:05:16;;;;;;;0.13;0.13;;;12.10;93.60;;;;;;5133410;28;20118;-74
2022/12/31 06:07:42;;;;;;;0.20;0.20;;;12.10;93.60;;;;;;5133402;28;20035;-74
2022/12/31 06:10:07;;;;;;;0.20;0.20;;;12.10;93.70;;;;;;5097754;28;20039;-74
2022/12/31 06:12:34;;;;;;;0.10;0.10;;;12.10;93.70;;;;;;5114647;28;20051;-74
2022/12/31 06:14:59;;;;;;;0.20;0.20;;;12.10;93.70;;;;;;5133160;28;20126;-74
2022/12/31 06:17:25;;;;;;;0.20;0.20;;;12.10;93.70;;;;;;5133182;28;20126;-73
2022/12/31 06:19:51;;;;;;;0.10;0.10;;;12.10;93.70;;;;;;5114673;28;20555;-74
2022/12/31 06:22:17;;;;;;;0.20;0.20;;;12.10;93.70;;;;;;5097651;28;20138;-74
2022/12/31 06:24:42;;;;;;;0.10;0.10;;;12.20;93.70;;;;;;5133498;28;20058;-74
2022/12/31 06:27:08;;;;;;;0.20;0.20;;;12.20;93.70;;;;;;5114522;28;20448;-74
2022/12/31 06:29:34;;;;;;;0.13;0.13;;;12.20;93.70;;;;;;5097648;28;20047;-75
2022/12/31 06:31:59;;;;;;;0.20;0.20;;;12.20;93.70;;;;;;5114430;28;20420;-74
2022/12/31 06:34:25;;;;;;;0.30;0.20;;;12.30;93.70;;;;;;5132767;28;20126;-74
2022/12/31 06:36:51;;;;;;;0.30;0.20;;;12.30;93.70;;;;;;5114278;28;20157;-75
2022/12/31 06:39:16;;;;;;;0.10;0.10;;;12.40;93.70;;;;;;5132879;28;20072;-75
2022/12/31 06:41:42;;;;;;;0.10;0.10;;;12.40;93.70;;;;;;5133230;28;20056;-74
2022/12/31 06:44:07;;;;;;;0.10;0.10;;;12.50;93.70;;;;;;5114304;28;20110;-76
2022/12/31 06:46:33;;;;;;;0.10;0.10;;;12.60;93.70;;;;;;5097446;28;20043;-75
2022/12/31 06:48:59;;;;;;;0.20;0.20;;;12.60;93.70;;;;;;5097484;28;20058;-75
2022/12/31 06:51:24;;;;;;;0.45;0.20;;;12.70;93.60;;;;;;5115039;28;20043;-74
2022/12/31 06:53:50;;;;;;;0.22;0.22;;;12.80;93.50;;;;;;5099465;28;20449;-75
2022/12/31 06:56:27;;;;;;;0.25;0.25;;;12.90;93.50;;;;;;5117802;28;20074;-75
2022/12/31 06:58:54;;;;;;;0.25;0.25;;;13.00;93.40;;;;;;5100461;28;20049;-75
2022/12/31 07:01:39;;;;;;;0.20;0.20;;;13.10;93.30;;;;;;5136794;28;20068;-74
2022/12/31 07:04:32;;;;;;;0.38;0.30;;;13.10;93.30;;;;;;5136721;28;20035;-75
2022/12/31 07:07:12;;;;;;;0.85;0.20;;;13.10;93.30;;;;;;5135950;28;20126;-75
2022/12/31 07:10:00;;;;;;;0.20;0.20;;;13.10;93.30;;;;;;5101498;28;20058;-75
2022/12/31 07:12:51;;;;;;;0.30;0.20;;;13.20;93.40;;;;;;5136499;28;20043;-75
2022/12/31 07:15:50;;;;;;;0.32;0.30;;;13.20;93.40;;;;;;5119596;28;20084;-75
2022/12/31 07:18:35;;;;;;;0.10;0.10;;;13.20;93.40;;;;;;5136366;28;20465;-75
2022/12/31 07:21:01;;;;;;;0.30;0.30;;;13.20;93.50;;;;;;5135874;28;20043;-75
2022/12/31 07:23:27;;;;;;;0.17;0.17;;;13.20;93.50;;;;;;5135753;28;20038;-75
2022/12/31 07:26:03;;;;;;;0.20;0.20;;;13.20;93.50;;;;;;5117533;28;20093;-75
2022/12/31 07:29:00;;;;;;;0.10;0.10;;;13.20;93.60;;;;;;5136439;28;20049;-75
2022/12/31 07:31:51;;;;;;;0.10;0.10;;;13.30;93.60;;;;;;5135889;28;20023;-76
2022/12/31 07:34:30;;;;;;;0.10;0.10;;;13.20;93.60;;;;;;5100019;28;20160;-75
2022/12/31 07:37:05;;;;;;;0.20;0.20;;;13.20;93.60;;;;;;5117664;28;20050;-76
2022/12/31 07:39:52;;;;;;;0.30;0.30;;;13.20;93.70;;;;;;5117017;28;20129;-76
2022/12/31 07:42:46;;;;;;;0.20;0.20;;;13.20;93.70;;;;;;5135597;28;20144;-76
2022/12/31 07:45:20;;;;;;;0.30;0.30;;;13.20;93.70;;;;;;5117216;28;20039;-75
2022/12/31 07:47:46;;;;;;;0.10;0.10;;;13.30;93.70;;;;;;5117158;28;20039;-75
2022/12/31 07:50:14;;;;;;;0.30;0.20;;;13.30;93.70;;;;;;5117017;28;20398;-75
2022/12/31 07:52:40;;;;;;;0.50;0.40;;;13.30;93.70;;;;;;5100377;28;20047;-75
2022/12/31 07:55:06;;;;;;;0.10;0.10;;;13.30;93.70;;;;;;5135361;28;20179;-76
2022/12/31 07:57:46;;;;;;;0.20;0.20;;;13.30;93.70;;;;;;5100862;28;20410;-76
2022/12/31 08:00:14;;;;;;;0.25;0.25;;;13.30;93.70;;;;;;5120162;28;20401;-75
2022/12/31 08:03:02;;;;;;;0.20;0.20;;;13.40;93.70;;;;;;5117379;28;20034;-76
2022/12/31 08:05:41;;;;;;;0.22;0.22;;;13.30;93.70;;;;;;5134618;27;20069;-75
2022/12/31 08:08:43;;;;;;;0.52;0.35;;;13.30;93.80;;;;;;5116611;28;20043;-76
2022/12/31 08:11:41;;;;;;;0.82;0.40;;;13.50;93.80;;;;;;5120266;28;20100;-75
2022/12/31 08:14:10;;;;;;;0.88;0.40;;;13.50;93.80;;;;;;5136305;28;20383;-75
2022/12/31 08:16:36;;;;;;;0.30;0.30;;;13.60;93.70;;;;;;5118369;28;20043;-75
2022/12/31 08:19:02;;;;;;;0.75;0.30;;;13.70;93.60;;;;;;5138041;28;20043;-75
2022/12/31 08:21:47;;;;;;;0.40;0.40;;;13.60;93.50;;;;;;5118726;28;20039;-74
2022/12/31 08:24:53;;;;;;;0.90;0.30;;;13.50;93.50;;;;;;5118167;28;20031;-74
2022/12/31 08:27:34;;;;;;;0.57;0.47;;;13.40;93.60;;;;;;5137385;28;20459;-75
2022/12/31 08:30:07;;;;;;;1.52;0.63;;;13.20;93.80;;;;;;5104421;28;20070;-75
2022/12/31 08:32:50;;;;;;;0.20;0.20;;;13.20;93.90;;;;;;5135029;28;20452;-75
2022/12/31 08:35:27;;;;;;;0.40;0.40;;;13.10;94.00;;;;;;5103061;28;20447;-75
2022/12/31 08:38:30;;;;;;;0.50;0.32;;;13.00;94.10;;;;;;5117011;28;20058;-75
2022/12/31 08:41:10;;;;;;;0.45;0.28;;;13.10;94.10;;;;;;5123043;28;20039;-75
2022/12/31 08:44:01;;;;;;;0.30;0.30;;;13.10;94.10;;;;;;5119171;28;20058;-75
2022/12/31 08:46:58;;;;;;;0.20;0.20;;;13.10;94.10;;;;;;5117785;28;20039;-75
2022/12/31 08:49:27;;;;;;;0.40;0.28;;;13.10;94.10;;;;;;5117561;28;20050;-75
2022/12/31 08:51:53;;;;;;;0.30;0.25;;;13.10;94.10;;;;;;5136124;28;20043;-75
2022/12/31 08:54:19;;;;;;;0.45;0.30;;;13.10;94.00;;;;;;5100523;28;20042;-75
2022/12/31 08:57:09;;;;;;;1.08;0.50;;;13.10;94.00;;;;;;5118402;28;20125;-76
2022/12/31 09:00:11;;;;;;;0.40;0.30;;;13.20;94.00;;;;;;5136399;28;20127;-75
2022/12/31 09:03:06;;;;;;;0.20;0.20;;;13.20;94.00;;;;;;5117149;28;20039;-75
2022/12/31 09:05:44;;;;;;;1.25;0.35;;;13.20;94.00;;;;;;5116790;28;20447;-75
2022/12/31 09:08:37;;;;;;;0.47;0.30;;;13.20;94.00;;;;;;5118044;28;20043;-76
2022/12/31 09:11:42;;;;;;;0.85;0.30;;;13.20;94.00;;;;;;5121631;28;20053;-76
2022/12/31 09:14:37;;;;;;;0.75;0.32;;;13.20;94.00;;;;;;5133600;28;20525;-77
2022/12/31 09:17:25;;;;;;;0.63;0.30;;;13.30;94.00;;;;;;5118243;28;20043;-76
2022/12/31 09:19:51;;;;;;;0.40;0.30;;;13.20;94.00;;;;;;5134080;28;20046;-76
2022/12/31 09:22:17;;;;;;;1.13;0.38;;;13.30;93.90;;;;;;5097060;28;20035;-77
2022/12/31 09:24:43;;;;;;;0.57;0.50;;;13.30;93.90;;;;;;5098983;28;20046;-77
2022/12/31 09:27:29;;;;;;;0.77;0.40;;;13.40;93.90;;;;;;5098669;28;20472;-77
2022/12/31 09:30:09;;;;;;;0.73;0.35;;;13.40;93.90;;;;;;5116372;28;20031;-77
2022/12/31 09:32:54;;;;;;;1.25;0.35;;;13.40;93.90;;;;;;5134451;28;20039;-77
2022/12/31 09:35:46;;;;;;;0.40;0.40;;;13.40;93.90;;;;;;5099742;28;20043;-76
2022/12/31 09:38:36;;;;;;;0.30;0.20;;;13.50;93.90;;;;;;5116225;28;20542;-74
2022/12/31 09:41:27;;;;;;;0.50;0.43;;;13.60;93.90;;;;;;5118268;28;20092;-75
2022/12/31 09:44:27;;;;;;;1.38;0.90;;;13.70;93.80;;;;;;5100793;28;20740;-74
2022/12/31 09:47:28;;;;;;;5.20;2.63;;;13.60;93.80;;;;;;5131922;28;20122;-74
2022/12/31 09:50:27;;;;;;;5.75;3.20;;;13.80;94.10;;;;;;5086154;28;20039;-74
2022/12/31 09:53:09;;;;;;;3.85;2.45;;;13.90;93.80;;;;;;5114874;28;20043;-74
2022/12/31 09:55:41;;;;;;;3.13;1.75;;;14.00;93.70;;;;;;5115001;28;20061;-74
2022/12/31 09:58:31;;;;;;;2.20;1.45;;;14.10;93.70;;;;;;5081703;28;20039;-75
2022/12/31 10:01:18;;;;;;;2.03;1.30;;;14.30;93.60;;;;;;5098023;28;20039;-74
2022/12/31 10:04:18;;;;;;;0.90;0.82;;;14.40;93.40;;;;;;5114992;28;20306;-74
2022/12/31 10:07:07;;;;;;;2.23;0.87;;;14.50;93.30;;;;;;5115265;28;20474;-74
2022/12/31 10:09:58;;;;;;;0.70;0.70;;;14.50;93.20;;;;;;5133328;28;20590;-73
2022/12/31 10:12:52;;;;;;;0.98;0.63;;;14.60;93.30;;;;;;5100573;28;20557;-73
2022/12/31 10:15:46;;;;;;;2.35;0.90;;;14.60;93.20;;;;;;5115494;28;20047;-75
2022/12/31 10:18:34;;;;;;;1.98;0.70;;;14.60;93.20;;;;;;5097431;28;20478;-74
2022/12/31 10:21:21;;;;;;;0.68;0.60;;;14.70;93.30;;;;;;5114611;28;20057;-74
2022/12/31 10:24:18;;;;;;;0.95;0.57;;;14.70;93.30;;;;;;5099198;28;20092;-75
2022/12/31 10:26:58;;;;;;;1.80;0.68;;;14.70;93.30;;;;;;5101947;28;20042;-74
2022/12/31 10:29:55;;;;;;;1.30;0.77;;;14.80;93.20;;;;;;5119059;28;20043;-74
2022/12/31 10:32:40;;;;;;;1.02;0.65;;;14.90;93.20;;;;;;5136403;28;20554;-74
2022/12/31 10:35:30;;;;;;;0.77;0.55;;;14.90;93.10;;;;;;5085313;28;20039;-74
2022/12/31 10:38:13;;;;;;;1.95;0.68;;;14.90;93.10;;;;;;5117783;28;20092;-73
2022/12/31 10:41:11;;;;;;;2.03;0.60;;;14.90;93.10;;;;;;5101987;28;20039;-73
2022/12/31 10:44:05;;;;;;;3.08;0.80;;;14.90;93.10;;;;;;5118764;28;20070;-75
2022/12/31 10:47:00;;;;;;;2.35;1.00;;;14.90;93.10;;;;;;5100089;28;20449;-75
2022/12/31 10:50:01;;;;;;;1.27;0.90;;;15.00;93.10;;;;;;5136586;28;20468;-75
2022/12/31 10:52:47;;;;;;;1.25;0.90;;;15.10;93.10;;;;;;5117863;28;20046;-75
2022/12/31 10:55:44;;;;;;;1.85;1.20;;;15.00;93.10;;;;;;5102497;28;20126;-75
2022/12/31 10:58:41;;;;;;;2.08;1.10;;;15.00;93.10;;;;;;5117136;28;20047;-75
2022/12/31 11:01:42;;;;;;;1.58;1.02;;;15.00;93.10;;;;;;5136803;28;20043;-75
2022/12/31 11:04:39;;;;;;;2.60;1.10;;;15.20;93.10;;;;;;5103384;28;20478;-73
2022/12/31 11:07:42;;;;;;;1.55;1.00;;;15.10;93.10;;;;;;5117576;28;20048;-74
2022/12/31 11:10:33;;;;;;;1.27;0.80;;;15.10;93.10;;;;;;5135784;28;20047;-74
2022/12/31 11:13:38;;;;;;;1.52;0.98;;;15.10;93.00;;;;;;5117393;28;20478;-74
2022/12/31 11:16:22;;;;;;;2.38;1.33;;;15.10;93.00;;;;;;5109451;28;20379;-73
2022/12/31 11:19:12;;;;;;;2.00;1.30;;;15.10;93.10;;;;;;5102269;28;20047;-74
2022/12/31 11:21:54;;;;;;;2.17;1.10;;;15.10;93.10;;;;;;5119706;28;20057;-75
2022/12/31 11:24:53;;;;;;;2.00;1.20;;;15.10;93.10;;;;;;5100374;28;20490;-75
2022/12/31 11:27:40;;;;;;;2.30;1.10;;;15.10;93.10;;;;;;5117673;28;20474;-73
2022/12/31 11:30:23;;;;;;;2.28;0.80;;;15.00;93.10;;;;;;5100462;28;20054;-73
2022/12/31 11:33:24;;;;;;;1.08;0.98;;;15.10;93.20;;;;;;5100990;28;20039;-72
2022/12/31 11:36:12;;;;;;;2.55;0.95;;;15.10;93.20;;;;;;5120590;28;20141;-73
2022/12/31 11:38:52;;;;;;;1.75;0.93;;;15.10;93.20;;;;;;5101604;27;20149;-74
2022/12/31 11:41:42;;;;;;;1.92;1.00;;;15.10;93.20;;;;;;5099836;28;20398;-74
2022/12/31 11:44:23;;;;;;;2.03;0.80;;;15.20;93.10;;;;;;5100516;28;20091;-73
2022/12/31 11:47:05;;;;;;;2.50;1.58;;;15.20;93.00;;;;;;5101421;28;20042;-73
2022/12/31 11:49:48;;;;;;;4.78;2.60;;;15.30;93.00;;;;;;5117605;28;20062;-73
2022/12/31 11:52:39;;;;;;;4.38;2.40;;;15.30;93.00;;;;;;5101479;28;20039;-73
2022/12/31 11:55:16;;;;;;;;;;;15.30;92.90;;;;;;5135451;28;20418;-73
2022/12/31 11:57:49;;;;;;;4.88;2.10;;;15.40;92.90;;;;;;5133909;28;20370;-73
2022/12/31 12:00:21;;;;;;;2.83;1.40;;;15.40;92.80;;;;;;5134959;28;20042;-72
2022/12/31 12:02:50;;;;;;;2.70;1.67;;;15.50;92.70;;;;;;5117547;28;20043;-73
2022/12/31 12:05:20;;;;;;;2.88;1.45;;;15.50;92.60;;;;;;5135540;28;20035;-73
2022/12/31 12:07:48;;;;;;;2.22;1.52;;;15.50;92.60;;;;;;5135539;28;20092;-73
2022/12/31 12:10:36;;;;;;;1.70;0.98;;;15.60;92.50;;;;;;5099462;28;20035;-72
2022/12/31 12:13:17;;;;;;;3.42;1.33;;;15.60;92.40;;;;;;5134829;28;20047;-73
2022/12/31 12:15:49;;;;;;;4.18;1.27;;;15.70;92.30;;;;;;5135109;28;20035;-72
2022/12/31 12:18:45;;;;;;;23.90;21.33;;;15.80;92.30;;;;;;5134996;28;20043;-73
2022/12/31 12:21:25;;;;;;;24.40;21.90;;;15.80;92.20;;;;;;5134996;28;20050;-73
2022/12/31 12:24:04;;;;;;;14.48;12.13;;;15.70;92.10;;;;;;5116353;28;20050;-72
2022/12/31 12:26:40;;;;;;;8.70;7.25;;;15.80;92.00;;;;;;5116323;28;20027;-73
2022/12/31 12:29:21;;;;;;;8.75;6.22;;;15.80;92.00;;;;;;5135072;28;20043;-73
2022/12/31 12:32:01;;;;;;;7.13;4.20;;;15.70;92.10;;;;;;5134605;28;20466;-72
2022/12/31 12:34:32;;;;;;;5.18;3.20;;;15.70;92.00;;;;;;5116559;28;20424;-73
2022/12/31 12:36:59;;;;;;;3.83;2.47;;;15.60;92.10;;;;;;5134439;28;20129;-73
2022/12/31 12:39:28;;;;;;;2.85;1.70;;;15.50;92.10;;;;;;5116302;28;20035;-73
2022/12/31 12:42:09;;;;;;;4.03;2.00;;;15.40;92.10;;;;;;5116032;28;20039;-73
2022/12/31 12:44:35;;;;;;;2.90;1.90;;;15.40;92.20;;;;;;5115937;28;20111;-73
2022/12/31 12:47:03;;;;;;;3.13;1.40;;;15.40;92.20;;;;;;5134231;28;20053;-73
2022/12/31 12:49:39;;;;;;;2.83;1.40;;;15.40;92.30;;;;;;5134284;28;20081;-73
2022/12/31 12:52:35;;;;;;;2.92;1.48;;;15.30;92.30;;;;;;5134036;27;20919;-73
2022/12/31 12:55:27;;;;;;;3.75;1.52;;;15.30;92.30;;;;;;5134643;28;20049;-73
2022/12/31 12:58:24;;;;;;;2.35;1.25;;;15.30;92.30;;;;;;5101700;28;20096;-73
2022/12/31 13:01:19;;;;;;;2.45;1.23;;;15.30;92.30;;;;;;5115888;28;20487;-73
2022/12/31 13:04:20;;;;;;;1.73;0.90;;;15.30;92.30;;;;;;5134444;28;20508;-72
2022/12/31 13:07:04;;;;;;;2.53;1.40;;;15.30;92.20;;;;;;5134265;28;20122;-73
2022/12/31 13:09:57;;;;;;;3.40;1.48;;;15.30;92.20;;;;;;5115673;28;20043;-73
2022/12/31 13:12:50;;;;;;;4.03;1.60;;;15.30;92.20;;;;;;5134013;28;20066;-73
2022/12/31 13:15:40;;;;;;;2.45;1.40;;;15.30;92.20;;;;;;5117491;28;20037;-73
2022/12/31 13:18:41;;;;;;;11.32;8.30;;;15.30;92.10;;;;;;5133821;28;20090;-73
2022/12/31 13:21:29;;;;;;;8.77;6.13;;;15.40;92.10;;;;;;5101098;28;20046;-73
2022/12/31 13:24:04;;;;;;;7.15;4.53;;;15.40;92.00;;;;;;5133917;28;20035;-73
2022/12/31 13:26:37;;;;;;;5.78;3.60;;;15.40;92.00;;;;;;5134520;28;20031;-73
2022/12/31 13:29:04;;;;;;;5.22;2.80;;;15.40;92.00;;;;;;5134388;28;20039;-73
2022/12/31 13:31:34;;;;;;;3.47;1.95;;;15.50;92.00;;;;;;5132413;28;20042;-73
2022/12/31 13:34:12;;;;;;;3.03;1.95;;;15.50;91.90;;;;;;5134303;28;20043;-73
2022/12/31 13:36:40;;;;;;;3.03;1.70;;;15.50;91.80;;;;;;5116322;28;20027;-73
2022/12/31 13:39:14;;;;;;;3.30;1.50;;;15.40;91.80;;;;;;5134300;28;20483;-73
2022/12/31 13:41:47;;;;;;;8.65;4.60;;;15.50;91.80;;;;;;5133390;28;20054;-73
2022/12/31 13:44:26;;;;;;;8.30;6.07;;;15.40;91.80;;;;;;5115640;28;20046;-74
2022/12/31 13:47:07;;;;;;;8.75;5.05;;;15.40;91.80;;;;;;5114968;28;20073;-73
2022/12/31 13:49:44;;;;;;;8.27;5.70;;;15.40;91.80;;;;;;5116920;28;20035;-74